Time;durP1;ratioP1;P1;durP2;ratioP2;P2;SDS_P1;SDS_P2;PMS_P1;PMS_P2;Temp;Humidity;BMP_temperature;BMP_pressure;BME280_temperature;BME280_humidity;BME280_pressure;Samples;Min_cycle;Max_cycle;Signal;HPM_P1;HPM_P2
2021/12/05 00:17:34;;;;;;;14.53;12.77;;;;;;;2.56;100.00;99436.13;5095480;27;20250;-55
2021/12/05 00:20:09;;;;;;;18.90;13.37;;;;;;;2.26;100.00;99440.16;5105018;27;20768;-54
2021/12/05 00:22:39;;;;;;;17.70;14.10;;;;;;;1.83;100.00;99449.97;5099035;27;20221;-54
2021/12/05 00:25:10;;;;;;;18.73;13.87;;;;;;;2.16;100.00;99448.66;5100094;27;20233;-54
2021/12/05 00:27:44;;;;;;;18.93;13.07;;;;;;;2.34;100.00;99456.63;5102239;27;20287;-55
2021/12/05 00:30:32;;;;;;;16.07;12.90;;;;;;;2.34;100.00;99461.81;5098804;28;20240;-54
2021/12/05 00:33:10;;;;;;;15.93;13.03;;;;;;;2.36;100.00;99465.28;5101757;27;20679;-55
2021/12/05 00:41:45;;;;;;;15.13;12.57;;;;;;;2.16;100.00;99474.53;5082297;27;20236;-55
2021/12/05 00:45:04;;;;;;;18.03;13.57;;;;;;;2.55;100.00;99473.25;5096977;27;20229;-55
2021/12/05 00:47:47;;;;;;;17.50;12.27;;;;;;;2.25;100.00;99479.84;5100266;27;20496;-54
2021/12/05 00:55:55;;;;;;;13.97;11.97;;;;;;;2.18;100.00;99482.31;5042610;28;20322;-54
2021/12/05 01:02:00;;;;;;;17.40;13.47;;;;;;;2.02;100.00;99470.91;5096210;28;20579;-53
2021/12/05 01:04:45;;;;;;;17.57;12.77;;;;;;;1.94;100.00;99475.13;5089025;27;20236;-55
2021/12/05 01:07:31;;;;;;;14.13;12.10;;;;;;;1.79;100.00;99468.91;5083212;28;20255;-53
2021/12/05 01:10:14;;;;;;;15.67;13.10;;;;;;;2.09;100.00;99477.91;5083120;28;20357;-55
2021/12/05 01:12:46;;;;;;;16.77;12.87;;;;;;;2.29;100.00;99484.22;5083354;28;20227;-53
2021/12/05 01:15:18;;;;;;;16.10;12.90;;;;;;;2.02;100.00;99476.09;5085236;28;20243;-53
2021/12/05 01:17:58;;;;;;;14.30;11.13;;;;;;;2.81;100.00;99481.31;5086837;28;20235;-55
2021/12/05 01:20:25;;;;;;;15.13;12.30;;;;;;;2.75;100.00;99487.31;5093897;28;20233;-54
2021/12/05 01:22:58;;;;;;;15.90;13.20;;;;;;;1.94;100.00;99488.06;5086903;28;20240;-52
2021/12/05 01:25:35;;;;;;;14.50;11.97;;;;;;;2.11;100.00;99491.75;5088653;28;20690;-55
2021/12/05 01:28:08;;;;;;;15.97;11.60;;;;;;;2.18;100.00;99488.38;5085887;28;20576;-56
2021/12/05 01:30:43;;;;;;;14.53;11.30;;;;;;;2.29;100.00;99496.28;5087537;28;20225;-56
2021/12/05 01:33:17;;;;;;;15.70;11.53;;;;;;;2.24;100.00;99503.13;5090481;27;20243;-55
2021/12/05 01:35:55;;;;;;;13.27;11.23;;;;;;;2.82;100.00;99509.84;5086773;28;20221;-54
2021/12/05 01:38:34;;;;;;;14.60;12.10;;;;;;;2.77;100.00;99495.97;5086577;28;20241;-52
2021/12/05 01:41:24;;;;;;;12.97;10.23;;;;;;;2.66;100.00;99492.38;5086462;28;20224;-54
2021/12/05 01:47:11;;;;;;;14.30;11.57;;;;;;;2.29;100.00;99489.38;5078571;28;20721;-53
2021/12/05 01:50:02;;;;;;;15.37;11.17;;;;;;;2.22;100.00;99484.97;5087260;28;20241;-55
2021/12/05 01:55:42;;;;;;;14.57;11.40;;;;;;;2.45;100.00;99500.78;5068071;28;20241;-55
2021/12/05 01:58:22;;;;;;;14.77;11.77;;;;;;;2.68;100.00;99500.19;5080474;28;20671;-55
2021/12/05 02:01:14;;;;;;;15.73;12.17;;;;;;;2.27;100.00;99514.38;5083633;28;20701;-55
2021/12/05 02:09:35;;;;;;;13.33;10.83;;;;;;;2.58;100.00;99509.56;5084754;28;20282;-53
2021/12/05 02:31:20;;;;;;;17.70;12.70;;;;;;;2.30;100.00;99514.41;5082194;28;20607;-53
2021/12/05 02:33:56;;;;;;;13.53;11.43;;;;;;;2.49;100.00;99510.34;5085170;28;20233;-54
2021/12/05 02:36:44;;;;;;;14.93;13.37;;;;;;;1.96;100.00;99502.75;5085533;28;20254;-54
2021/12/05 02:39:39;;;;;;;19.07;13.13;;;;;;;1.77;100.00;99509.41;5084649;28;20304;-55
2021/12/05 02:42:10;;;;;;;16.50;13.37;;;;;;;1.83;100.00;99511.22;5080037;28;20244;-53
2021/12/05 02:44:37;;;;;;;18.77;12.57;;;;;;;2.17;100.00;99516.84;5085172;27;20229;-54
2021/12/05 02:47:08;;;;;;;16.13;13.80;;;;;;;2.35;100.00;99512.78;5087280;27;20298;-52
2021/12/05 02:49:37;;;;;;;20.40;14.80;;;;;;;2.03;100.00;99512.34;5083568;28;20234;-54
2021/12/05 02:52:10;;;;;;;17.63;14.40;;;;;;;1.96;100.00;99527.75;5081550;28;20893;-54
2021/12/05 02:54:40;;;;;;;18.87;13.73;;;;;;;2.09;100.00;99530.53;5078442;27;20321;-55
2021/12/05 02:57:08;;;;;;;18.07;13.13;;;;;;;2.34;100.00;99536.91;5084844;28;20752;-55
2021/12/05 02:59:44;;;;;;;15.90;12.53;;;;;;;2.71;100.00;99542.56;5087065;28;20786;-55
2021/12/05 03:02:14;;;;;;;20.60;14.70;;;;;;;2.97;100.00;99544.56;5084737;27;20922;-54
2021/12/05 03:04:44;;;;;;;19.20;14.33;;;;;;;2.07;100.00;99542.63;5086952;28;20294;-54
2021/12/05 03:07:13;;;;;;;15.40;13.03;;;;;;;2.66;100.00;99546.78;5087214;28;20345;-53
2021/12/05 03:09:43;;;;;;;16.57;12.17;;;;;;;3.00;100.00;99545.44;5084708;28;20244;-54
2021/12/05 03:12:16;;;;;;;17.60;14.03;;;;;;;2.38;100.00;99556.81;5086993;28;20237;-56
2021/12/05 03:14:43;;;;;;;19.37;14.17;;;;;;;2.67;100.00;99552.84;5085908;28;20610;-53
2021/12/05 03:17:09;;;;;;;18.17;13.90;;;;;;;2.30;100.00;99557.59;5085346;28;20232;-53
2021/12/05 03:19:36;;;;;;;22.67;15.40;;;;;;;2.76;100.00;99558.16;5084113;28;20241;-54
2021/12/05 03:22:03;;;;;;;16.50;14.47;;;;;;;2.43;100.00;99561.22;5088089;27;20269;-54
2021/12/05 03:24:31;;;;;;;18.30;14.60;;;;;;;2.65;100.00;99563.19;5078988;28;20233;-55
2021/12/05 03:26:58;;;;;;;19.87;15.47;;;;;;;2.72;100.00;99559.81;5085027;28;20232;-54
2021/12/05 03:29:25;;;;;;;21.73;16.43;;;;;;;2.85;100.00;99561.72;5083839;28;20233;-54
2021/12/05 03:31:54;;;;;;;17.57;15.00;;;;;;;2.77;100.00;99562.47;5083890;28;20244;-54
2021/12/05 03:34:21;;;;;;;21.47;16.57;;;;;;;2.39;100.00;99560.31;5084495;28;20245;-52
2021/12/05 03:36:50;;;;;;;18.33;14.13;;;;;;;2.47;100.00;99568.16;5084250;28;20244;-55
2021/12/05 03:39:17;;;;;;;23.70;16.37;;;;;;;2.18;100.00;99571.25;5082806;28;20264;-55
2021/12/05 03:41:45;;;;;;;18.17;14.60;;;;;;;2.17;100.00;99578.97;5081096;28;20592;-54
2021/12/05 03:44:16;;;;;;;22.40;17.43;;;;;;;2.11;100.00;99579.78;5082180;28;20234;-53
2021/12/05 03:46:43;;;;;;;21.37;15.37;;;;;;;1.88;100.00;99590.63;5082549;28;20252;-55
2021/12/05 03:49:11;;;;;;;17.93;14.47;;;;;;;2.22;100.00;99588.56;5080115;28;20357;-54
2021/12/05 03:51:41;;;;;;;19.47;15.57;;;;;;;1.84;100.00;99596.63;5092702;28;20257;-54
2021/12/05 03:54:07;;;;;;;24.33;16.70;;;;;;;1.89;100.00;99605.31;5083526;28;20613;-54
2021/12/05 03:56:35;;;;;;;23.47;16.43;;;;;;;2.10;100.00;99606.50;5083122;28;20261;-53
2021/12/05 03:59:04;;;;;;;19.97;15.83;;;;;;;2.11;100.00;99610.84;5084445;28;20228;-52
2021/12/05 04:01:31;;;;;;;26.47;17.27;;;;;;;1.75;100.00;99618.88;5086112;28;20656;-53
2021/12/05 04:03:59;;;;;;;25.00;17.60;;;;;;;1.62;100.00;99625.59;5087026;28;20233;-54
2021/12/05 04:06:27;;;;;;;23.60;17.13;;;;;;;1.37;100.00;99638.09;5078451;28;20282;-56
2021/12/05 04:08:55;;;;;;;21.67;17.00;;;;;;;1.35;100.00;99638.91;5085421;28;20259;-56
2021/12/05 04:11:27;;;;;;;23.27;17.80;;;;;;;1.37;100.00;99638.09;5085997;28;20239;-53
2021/12/05 04:13:54;;;;;;;25.30;17.90;;;;;;;1.49;100.00;99652.06;5082927;28;20725;-54
2021/12/05 04:16:22;;;;;;;24.77;19.60;;;;;;;1.32;100.00;99646.59;5086150;28;20288;-54
2021/12/05 04:18:49;;;;;;;21.73;16.53;;;;;;;1.81;100.00;99642.28;5085856;28;20302;-55
2021/12/05 04:21:17;;;;;;;21.37;15.43;;;;;;;2.25;100.00;99631.75;5084138;28;20279;-57
2021/12/05 04:23:44;;;;;;;24.93;17.13;;;;;;;2.47;100.00;99625.16;5083977;28;20227;-56
2021/12/05 04:26:11;;;;;;;22.27;17.90;;;;;;;2.56;100.00;99631.34;5083839;28;20233;-54
2021/12/05 04:28:39;;;;;;;25.40;17.57;;;;;;;2.54;100.00;99638.22;5083366;28;20401;-56
2021/12/05 04:31:07;;;;;;;23.27;16.37;;;;;;;2.29;100.00;99631.81;5082120;28;20232;-57
2021/12/05 04:33:35;;;;;;;22.83;17.33;;;;;;;2.52;100.00;99639.03;5078674;28;20241;-56
2021/12/05 04:36:02;;;;;;;20.57;15.90;;;;;;;2.72;100.00;99631.53;5084423;28;20259;-55
2021/12/05 04:38:29;;;;;;;20.43;16.83;;;;;;;3.08;100.00;99625.91;5083821;28;20259;-55
2021/12/05 04:40:55;;;;;;;20.23;16.00;;;;;;;3.46;100.00;99631.50;5084322;28;20229;-55
2021/12/05 04:43:22;;;;;;;20.80;16.07;;;;;;;3.63;99.63;99634.25;5064617;22;20256;-53
2021/12/05 04:45:48;;;;;;;20.37;16.77;;;;;;;3.04;98.57;99629.31;5026530;28;20294;-52
2021/12/05 04:48:14;;;;;;;22.50;17.23;;;;;;;3.34;100.00;99642.63;5028893;28;20270;-54
2021/12/05 04:50:44;;;;;;;24.67;18.23;;;;;;;3.00;100.00;99643.97;5029092;28;20239;-54
2021/12/05 04:53:10;;;;;;;20.73;15.07;;;;;;;3.32;100.00;99638.28;5029124;28;20739;-52
2021/12/05 04:55:37;;;;;;;19.43;15.47;;;;;;;3.55;97.78;99641.13;5027896;28;20297;-53
2021/12/05 04:58:06;;;;;;;20.97;16.13;;;;;;;3.08;98.75;99641.47;5028525;28;20234;-53
2021/12/05 05:00:38;;;;;;;22.83;15.93;;;;;;;2.90;100.00;99631.75;5026543;28;20305;-53
2021/12/05 05:03:05;;;;;;;19.30;15.83;;;;;;;2.52;100.00;99644.22;5024889;28;20239;-54
2021/12/05 05:05:32;;;;;;;17.23;14.30;;;;;;;2.33;100.00;99636.19;5027752;28;20272;-53
2021/12/05 05:08:00;;;;;;;25.83;18.73;;;;;;;1.90;100.00;99647.63;5028341;28;20240;-54
2021/12/05 05:10:29;;;;;;;22.17;17.43;;;;;;;2.28;100.00;99635.25;5026461;28;20704;-53
2021/12/05 05:12:56;;;;;;;25.10;17.40;;;;;;;2.07;100.00;99640.09;5027387;28;20259;-54
2021/12/05 05:15:26;;;;;;;22.57;16.27;;;;;;;2.07;100.00;99648.75;5022711;28;20731;-52
2021/12/05 05:17:53;;;;;;;21.90;17.07;;;;;;;2.43;100.00;99651.88;5025985;28;20299;-53
2021/12/05 05:20:24;;;;;;;20.37;15.63;;;;;;;2.31;100.00;99661.19;5030943;28;20238;-53
2021/12/05 05:23:08;;;;;;;22.90;16.80;;;;;;;2.14;100.00;99663.53;5029661;28;20319;-53
2021/12/05 05:26:15;;;;;;;21.10;16.50;;;;;;;1.94;100.00;99658.88;5022651;28;20233;-54
2021/12/05 05:29:05;;;;;;;21.87;15.37;;;;;;;1.57;100.00;99666.00;5024096;28;20242;-53
2021/12/05 05:45:31;;;;;;;25.53;18.63;;;;;;;1.19;100.00;99704.94;5026064;28;20239;-53
2021/12/05 05:48:14;;;;;;;23.27;17.23;;;;;;;1.24;100.00;99705.06;5026176;28;20278;-55
2021/12/05 05:50:41;;;;;;;23.93;17.57;;;;;;;1.28;100.00;99706.84;5026832;28;20258;-55
2021/12/05 05:53:08;;;;;;;21.77;18.30;;;;;;;1.41;100.00;99699.38;5027815;28;20258;-55
2021/12/05 05:55:35;;;;;;;24.10;17.87;;;;;;;1.74;100.00;99708.56;5026762;28;20242;-57
2021/12/05 05:58:07;;;;;;;23.73;16.60;;;;;;;2.44;100.00;99708.00;5027095;28;20256;-53
2021/12/05 06:00:39;;;;;;;19.63;15.73;;;;;;;2.47;100.00;99703.75;5027611;28;20593;-55
2021/12/05 06:03:21;;;;;;;24.50;17.73;;;;;;;2.33;100.00;99706.13;5025896;28;20823;-53
2021/12/05 06:05:49;;;;;;;28.53;18.23;;;;;;;2.03;100.00;99703.88;5024086;28;20341;-54
2021/12/05 06:08:15;;;;;;;26.57;18.70;;;;;;;1.90;100.00;99702.84;5025993;28;20236;-55
2021/12/05 06:10:42;;;;;;;24.77;18.70;;;;;;;1.86;100.00;99713.97;5027288;28;20228;-52
2021/12/05 06:13:09;;;;;;;23.20;17.97;;;;;;;1.80;100.00;99716.47;5026945;28;20878;-53
2021/12/05 06:15:36;;;;;;;24.20;18.43;;;;;;;2.22;100.00;99717.16;5027055;28;20297;-53
2021/12/05 06:18:02;;;;;;;31.23;20.90;;;;;;;2.12;100.00;99721.31;5028571;28;20345;-54
2021/12/05 06:20:31;;;;;;;23.50;17.53;;;;;;;2.02;100.00;99729.78;5026839;28;20688;-55
2021/12/05 06:22:57;;;;;;;26.77;19.40;;;;;;;1.92;100.00;99724.41;5025524;28;20244;-53
2021/12/05 06:25:27;;;;;;;22.87;16.30;;;;;;;1.91;100.00;99717.50;5024513;28;20697;-53
2021/12/05 06:27:55;;;;;;;28.93;20.10;;;;;;;1.90;100.00;99731.31;5026512;28;20240;-53
2021/12/05 06:30:32;;;;;;;29.73;21.57;;;;;;;1.91;100.00;99738.22;5026545;28;20926;-53
2021/12/05 06:38:52;;;;;;;29.03;21.60;;;;;;;1.80;100.00;99750.09;5025185;28;20306;-53
2021/12/05 06:41:22;;;;;;;31.10;21.07;;;;;;;1.75;100.00;99751.72;5022601;28;20227;-54
2021/12/05 06:46:36;;;;;;;36.17;23.83;;;;;;;2.00;100.00;99778.94;5026973;28;20243;-53
2021/12/05 06:49:03;;;;;;;27.93;19.57;;;;;;;2.22;100.00;99780.19;5027801;28;20246;-54
2021/12/05 06:51:30;;;;;;;36.40;23.57;;;;;;;2.07;100.00;99769.53;5026868;28;20343;-53
2021/12/05 06:53:57;;;;;;;35.07;22.53;;;;;;;2.03;100.00;99778.97;5018512;28;20236;-53
2021/12/05 06:56:24;;;;;;;32.03;20.60;;;;;;;2.01;100.00;99790.16;5022061;28;20259;-52
2021/12/05 06:58:51;;;;;;;30.97;21.17;;;;;;;2.61;100.00;99789.44;5026946;28;21016;-53
2021/12/05 07:01:18;;;;;;;34.30;20.40;;;;;;;3.20;100.00;99797.22;5026329;28;20305;-52
2021/12/05 07:03:48;;;;;;;33.17;21.50;;;;;;;3.45;100.00;99793.22;5025771;28;20635;-54
2021/12/05 07:06:21;;;;;;;31.53;21.03;;;;;;;2.66;100.00;99802.47;5024474;28;20221;-52
2021/12/05 07:08:48;;;;;;;34.53;22.13;;;;;;;3.04;100.00;99810.81;5024559;28;20240;-53
2021/12/05 07:11:21;;;;;;;31.53;20.27;;;;;;;3.09;100.00;99809.19;5025612;28;20253;-53
2021/12/05 07:14:17;;;;;;;31.17;21.83;;;;;;;2.49;100.00;99817.72;5026226;28;20236;-53
2021/12/05 07:16:50;;;;;;;30.37;20.47;;;;;;;2.11;100.00;99820.56;5020954;28;20224;-53
2021/12/05 07:19:32;;;;;;;29.00;20.97;;;;;;;2.95;100.00;99827.13;5026452;28;20235;-56
2021/12/05 07:22:01;;;;;;;33.20;22.23;;;;;;;2.69;100.00;99829.31;5027319;28;20226;-53
2021/12/05 07:24:40;;;;;;;34.73;22.77;;;;;;;2.52;100.00;99830.75;5021736;28;20228;-56
2021/12/05 07:40:45;;;;;;;29.70;20.77;;;;;;;2.58;100.00;99856.75;5022458;28;20234;-52
2021/12/05 07:43:12;;;;;;;30.70;22.77;;;;;;;2.21;100.00;99850.94;5018936;28;20681;-53
2021/12/05 07:45:43;;;;;;;35.10;22.47;;;;;;;1.63;100.00;99870.50;5017765;28;20270;-53
2021/12/05 07:48:14;;;;;;;36.93;23.70;;;;;;;1.66;100.00;99880.91;5024892;28;20231;-52
2021/12/05 07:50:49;;;;;;;29.77;21.40;;;;;;;1.52;100.00;99882.34;5024675;28;20314;-53
2021/12/05 07:53:22;;;;;;;36.17;24.73;;;;;;;1.30;100.00;99886.13;5023808;28;20243;-55
2021/12/05 07:55:50;;;;;;;39.23;23.57;;;;;;;1.54;100.00;99884.09;5018583;28;20269;-55
2021/12/05 07:58:32;;;;;;;36.03;22.70;;;;;;;2.65;100.00;99889.72;5024147;28;20227;-53
2021/12/05 08:01:14;;;;;;;39.73;23.50;;;;;;;2.43;100.00;99903.13;5019100;28;20232;-53
2021/12/05 08:14:42;;;;;;;32.47;21.67;;;;;;;3.16;100.00;99909.56;5025297;28;20770;-54
2021/12/05 08:17:14;;;;;;;32.03;22.30;;;;;;;3.51;100.00;99897.13;5026111;28;20650;-53
2021/12/05 08:19:41;;;;;;;30.73;20.77;;;;;;;3.71;98.83;99892.16;5028252;28;20239;-53
2021/12/05 08:22:09;;;;;;;34.80;23.33;;;;;;;3.28;98.63;99894.19;5028036;28;20259;-53
2021/12/05 08:24:36;;;;;;;33.57;22.43;;;;;;;2.86;100.00;99895.25;5029053;28;20374;-53
2021/12/05 08:27:05;;;;;;;31.03;21.97;;;;;;;2.98;100.00;99904.06;5017850;28;20251;-54
2021/12/05 08:29:37;;;;;;;34.13;20.80;;;;;;;3.18;100.00;99907.84;5027547;28;20286;-53
2021/12/05 08:32:20;;;;;;;30.73;21.27;;;;;;;3.57;99.68;99911.88;5026985;28;20228;-52
2021/12/05 08:35:02;;;;;;;29.37;20.07;;;;;;;3.78;97.67;99912.16;5023171;28;20319;-55
2021/12/05 08:43:12;;;;;;;30.33;20.40;;;;;;;3.32;100.00;99908.94;5045548;28;20802;-52
2021/12/05 09:24:43;;;;;;;39.97;24.23;;;;;;;1.81;100.00;99964.03;4963430;28;20746;-52
2021/12/05 09:27:48;;;;;;;35.20;23.87;;;;;;;2.05;100.00;99968.00;4959434;28;20238;-52
2021/12/05 09:38:57;;;;;;;31.43;23.37;;;;;;;2.25;100.00;99987.41;5038097;28;20263;-51
2021/12/05 10:06:53;;;;;;;36.63;23.50;;;;;;;2.17;100.00;100001.91;5077506;28;20288;-53
2021/12/05 10:12:32;;;;;;;37.70;24.60;;;;;;;2.13;100.00;100005.28;5077307;28;20225;-53
2021/12/05 10:15:17;;;;;;;45.43;28.00;;;;;;;2.18;100.00;100005.34;5079801;28;20237;-53
2021/12/05 10:26:56;;;;;;;42.30;24.97;;;;;;;2.18;100.00;100003.66;5016026;28;20248;-53
2021/12/05 10:35:20;;;;;;;35.83;24.07;;;;;;;2.19;100.00;100022.66;5081055;28;20244;-55
2021/12/05 10:37:50;;;;;;;34.73;24.10;;;;;;;2.28;100.00;100023.75;5076052;28;20233;-55
2021/12/05 10:40:22;;;;;;;38.83;25.37;;;;;;;2.27;100.00;100027.16;5080938;28;20316;-54
2021/12/05 10:42:50;;;;;;;38.47;25.50;;;;;;;2.38;100.00;100025.66;5075799;22;20301;-54
2021/12/05 10:45:32;;;;;;;40.07;27.33;;;;;;;2.36;100.00;100027.34;5015404;28;20243;-54
2021/12/05 10:48:01;;;;;;;40.03;25.93;;;;;;;2.41;100.00;100030.03;5019441;28;20278;-52
2021/12/05 10:50:32;;;;;;;37.20;25.37;;;;;;;2.32;100.00;100029.84;5021237;28;20728;-57
2021/12/05 10:53:36;;;;;;;38.67;26.87;;;;;;;2.38;100.00;100023.06;5024651;28;20663;-53
2021/12/05 10:56:09;;;;;;;38.00;25.83;;;;;;;2.40;100.00;100023.09;4938235;28;20269;-52
2021/12/05 10:58:38;;;;;;;38.33;25.70;;;;;;;2.44;100.00;100024.91;4943866;28;20292;-53
2021/12/05 11:01:29;;;;;;;41.20;25.43;;;;;;;2.49;100.00;100028.47;4981865;28;20883;-54
2021/12/05 11:03:58;;;;;;;42.17;26.70;;;;;;;2.42;100.00;100023.13;5015322;28;20240;-53
2021/12/05 11:06:32;;;;;;;37.37;25.67;;;;;;;2.49;100.00;100032.75;5013595;28;20244;-55
2021/12/05 11:09:02;;;;;;;37.70;25.43;;;;;;;2.39;100.00;100034.31;4994447;28;20236;-53
2021/12/05 11:11:28;;;;;;;35.80;24.17;;;;;;;2.37;100.00;100039.44;5004930;28;20758;-56
2021/12/05 11:13:57;;;;;;;36.97;24.17;;;;;;;2.57;100.00;100041.59;5005665;28;20731;-55
2021/12/05 11:16:44;;;;;;;41.80;26.03;;;;;;;2.48;100.00;100051.75;5007082;28;20291;-55
2021/12/05 11:19:14;;;;;;;41.97;26.93;;;;;;;2.51;100.00;100051.81;5008320;28;20233;-54
2021/12/05 11:21:47;;;;;;;38.03;26.23;;;;;;;2.50;100.00;100042.31;5015937;28;20262;-55
2021/12/05 11:24:19;;;;;;;39.63;26.00;;;;;;;2.55;100.00;100038.06;5013700;28;20240;-54
2021/12/05 11:27:02;;;;;;;47.73;25.57;;;;;;;2.52;100.00;100050.97;5006511;28;20244;-55
2021/12/05 11:29:41;;;;;;;41.00;24.97;;;;;;;2.52;100.00;100058.75;5007382;28;20240;-53
2021/12/05 11:32:14;;;;;;;40.17;26.50;;;;;;;2.45;100.00;100056.88;5006098;28;20227;-55
2021/12/05 11:34:41;;;;;;;38.30;26.13;;;;;;;2.46;100.00;100050.84;5006604;28;20256;-52
2021/12/05 11:37:08;;;;;;;41.40;26.40;;;;;;;2.50;100.00;100053.53;5003429;28;20306;-54
2021/12/05 11:39:34;;;;;;;42.93;26.40;;;;;;;2.51;100.00;100059.59;5008577;28;20298;-53
2021/12/05 11:42:00;;;;;;;39.40;25.63;;;;;;;2.52;100.00;100058.75;5005605;28;20305;-53
2021/12/05 11:44:27;;;;;;;38.33;25.17;;;;;;;2.51;100.00;100059.59;5002681;28;20300;-55
2021/12/05 11:46:54;;;;;;;37.47;24.77;;;;;;;2.43;100.00;100066.34;4999466;28;20318;-54
2021/12/05 11:49:24;;;;;;;37.70;24.97;;;;;;;2.39;100.00;100065.41;5003274;28;20247;-55
2021/12/05 11:51:52;;;;;;;38.77;24.30;;;;;;;2.41;100.00;100068.00;5009037;28;20225;-52
2021/12/05 11:54:22;;;;;;;37.97;23.37;;;;;;;2.41;100.00;100068.00;5006344;28;20236;-52
2021/12/05 11:56:52;;;;;;;34.97;23.57;;;;;;;2.37;100.00;100057.59;5006265;28;20294;-52
2021/12/05 11:59:21;;;;;;;36.40;24.40;;;;;;;2.33;100.00;100060.09;5010560;28;20246;-53
2021/12/05 12:01:51;;;;;;;35.47;24.23;;;;;;;2.35;100.00;100064.47;5008962;28;20290;-55
2021/12/05 12:04:20;;;;;;;38.30;24.37;;;;;;;2.34;100.00;100054.91;5008766;28;20244;-54
2021/12/05 12:07:06;;;;;;;31.13;22.53;;;;;;;2.34;100.00;100057.50;5008973;28;20713;-54
2021/12/05 12:09:33;;;;;;;37.80;23.90;;;;;;;2.31;100.00;100059.16;5008593;28;20676;-53
2021/12/05 12:12:00;;;;;;;41.37;25.80;;;;;;;2.28;100.00;100049.63;5023691;28;20232;-53
2021/12/05 12:14:28;;;;;;;37.70;24.90;;;;;;;2.24;100.00;100057.28;5022474;28;20260;-55
2021/12/05 12:16:56;;;;;;;39.77;24.40;;;;;;;2.24;100.00;100052.97;5019714;28;20245;-56
2021/12/05 12:19:23;;;;;;;39.93;25.03;;;;;;;2.34;100.00;100062.69;5015216;28;20241;-54
2021/12/05 12:21:56;;;;;;;41.07;26.33;;;;;;;2.35;100.00;100064.47;5011136;28;20237;-54
2021/12/05 12:24:23;;;;;;;43.97;28.40;;;;;;;2.18;100.00;100067.50;5007276;28;20251;-52
2021/12/05 12:26:50;;;;;;;40.80;26.40;;;;;;;2.21;100.00;100070.16;5013865;28;20236;-52
2021/12/05 12:29:16;;;;;;;42.00;28.37;;;;;;;2.25;100.00;100074.59;5006613;28;20689;-53
2021/12/05 12:31:45;;;;;;;38.00;25.80;;;;;;;2.28;100.00;100083.31;5004127;28;20592;-53
2021/12/05 12:34:15;;;;;;;39.33;26.67;;;;;;;2.37;100.00;100080.91;5007078;28;20240;-54
2021/12/05 12:36:44;;;;;;;40.73;27.50;;;;;;;2.38;100.00;100072.28;5010345;28;20286;-55
2021/12/05 12:39:29;;;;;;;42.80;25.73;;;;;;;2.35;100.00;100072.25;5005670;28;20298;-53
2021/12/05 12:42:06;;;;;;;44.30;26.73;;;;;;;2.28;100.00;100078.13;5006177;28;20236;-57
2021/12/05 12:44:34;;;;;;;37.87;27.00;;;;;;;2.27;100.00;100081.53;5007010;28;20280;-55
2021/12/05 12:47:03;;;;;;;46.07;28.83;;;;;;;2.23;100.00;100092.66;5003203;28;20291;-55
2021/12/05 12:49:31;;;;;;;38.17;25.40;;;;;;;2.34;100.00;100093.78;5004464;28;20299;-54
2021/12/05 12:52:02;;;;;;;40.97;25.03;;;;;;;2.34;100.00;100096.38;5006041;28;20244;-53
2021/12/05 12:54:32;;;;;;;34.57;24.83;;;;;;;2.35;100.00;100102.41;5007113;28;20263;-53
2021/12/05 12:57:09;;;;;;;42.30;26.93;;;;;;;2.29;100.00;100098.00;5006563;28;20664;-54
2021/12/05 12:59:40;;;;;;;38.83;24.43;;;;;;;2.28;100.00;100100.53;5005529;28;20275;-54
2021/12/05 13:02:29;;;;;;;41.40;27.17;;;;;;;2.21;100.00;100096.06;5006055;28;20232;-53
2021/12/05 13:05:21;;;;;;;44.10;27.33;;;;;;;2.08;100.00;100107.88;5003620;28;20240;-54
2021/12/05 13:10:35;;;;;;;38.43;24.53;;;;;;;2.69;100.00;100101.41;5007396;28;20239;-56
2021/12/05 13:13:06;;;;;;;45.10;28.07;;;;;;;2.51;100.00;100103.63;5004452;28;20236;-57
2021/12/05 13:15:38;;;;;;;40.27;28.30;;;;;;;2.39;100.00;100102.53;5007780;28;20229;-54
2021/12/05 13:18:19;;;;;;;38.07;27.03;;;;;;;2.35;100.00;100107.59;5002953;28;20232;-54
2021/12/05 13:20:54;;;;;;;40.03;26.23;;;;;;;2.29;100.00;100108.34;5015148;28;20243;-55
2021/12/05 13:23:27;;;;;;;41.40;28.97;;;;;;;2.32;100.00;100116.19;5007054;28;20255;-54
2021/12/05 13:26:12;;;;;;;45.33;29.50;;;;;;;2.41;100.00;100119.81;5007406;28;20244;-54
2021/12/05 13:28:42;;;;;;;48.77;29.90;;;;;;;2.44;100.00;100128.53;5009456;28;20292;-54
2021/12/05 13:31:46;;;;;;;42.37;28.77;;;;;;;2.29;100.00;100129.06;5003824;28;20324;-53
2021/12/05 13:34:25;;;;;;;43.27;28.90;;;;;;;2.35;100.00;100128.31;5005531;28;20286;-53
2021/12/05 13:36:54;;;;;;;38.53;26.10;;;;;;;2.31;100.00;100132.56;5003160;28;20231;-55
2021/12/05 13:39:37;;;;;;;39.00;28.33;;;;;;;2.31;100.00;100127.38;5001798;28;20271;-53
2021/12/05 13:42:13;;;;;;;39.77;26.73;;;;;;;2.39;100.00;100125.84;5002516;28;20235;-55
2021/12/05 13:45:05;;;;;;;38.67;26.07;;;;;;;2.25;100.00;100128.97;5003884;28;20235;-53
2021/12/05 13:47:35;;;;;;;38.47;25.93;;;;;;;2.24;100.00;100135.84;5001260;28;20302;-54
2021/12/05 13:50:41;;;;;;;41.03;26.97;;;;;;;2.13;100.00;100139.91;4999089;28;20693;-51
2021/12/05 13:53:23;;;;;;;40.83;29.00;;;;;;;1.99;100.00;100138.72;4979715;28;20244;-53
2021/12/05 13:56:01;;;;;;;39.33;27.13;;;;;;;1.96;100.00;100143.81;5006828;28;20248;-55
2021/12/05 13:58:41;;;;;;;44.37;28.33;;;;;;;1.87;100.00;100150.53;5002665;28;20327;-55
2021/12/05 14:01:10;;;;;;;42.37;26.53;;;;;;;1.85;100.00;100152.19;5001662;28;20232;-54
2021/12/05 14:04:11;;;;;;;41.00;28.47;;;;;;;1.82;100.00;100157.28;5004716;28;20299;-54
2021/12/05 14:06:43;;;;;;;43.50;26.80;;;;;;;1.84;100.00;100162.53;5006150;28;20232;-55
2021/12/05 14:09:18;;;;;;;35.90;25.67;;;;;;;1.88;100.00;100170.38;5004161;28;20274;-53
2021/12/05 14:11:50;;;;;;;43.07;26.60;;;;;;;2.01;100.00;100179.34;4990782;28;20232;-52
2021/12/05 14:14:22;;;;;;;42.67;28.37;;;;;;;1.86;100.00;100187.63;5010203;28;20240;-53
2021/12/05 14:16:50;;;;;;;41.03;26.50;;;;;;;1.91;100.00;100190.31;5001057;28;20236;-53
2021/12/05 14:19:18;;;;;;;38.07;25.53;;;;;;;1.93;100.00;100196.41;5007547;28;20696;-55
2021/12/05 14:21:47;;;;;;;39.67;25.93;;;;;;;1.94;100.00;100190.38;5004884;28;20272;-52
2021/12/05 14:24:15;;;;;;;40.07;26.33;;;;;;;1.94;100.00;100202.47;5007651;28;20349;-53
2021/12/05 14:26:42;;;;;;;42.73;26.23;;;;;;;1.86;100.00;100210.91;5006087;28;20314;-55
2021/12/05 14:29:13;;;;;;;42.03;26.90;;;;;;;1.97;100.00;100212.91;5004093;28;20257;-53
2021/12/05 14:31:43;;;;;;;42.83;25.10;;;;;;;2.25;100.00;100224.81;5007709;28;20236;-54
2021/12/05 14:34:12;;;;;;;39.90;27.83;;;;;;;2.12;100.00;100224.50;5002677;28;20432;-52
2021/12/05 14:36:43;;;;;;;35.97;23.00;;;;;;;2.07;100.00;100227.78;5000547;28;20627;-54
2021/12/05 14:39:28;;;;;;;37.93;24.27;;;;;;;2.09;100.00;100233.91;5002835;28;20243;-53
2021/12/05 14:41:59;;;;;;;36.93;24.60;;;;;;;2.15;100.00;100252.19;5004887;28;20264;-54
2021/12/05 14:44:26;;;;;;;36.73;21.87;;;;;;;2.14;100.00;100261.66;5008109;28;20744;-55
2021/12/05 14:46:57;;;;;;;36.83;24.97;;;;;;;2.49;100.00;100260.75;5024735;28;20236;-52
2021/12/05 14:49:25;;;;;;;39.97;26.23;;;;;;;2.25;100.00;100261.06;5029699;28;20220;-56
2021/12/05 14:51:53;;;;;;;32.93;22.60;;;;;;;2.57;100.00;100275.66;5031153;28;20226;-55
2021/12/05 14:54:23;;;;;;;37.43;23.87;;;;;;;2.53;100.00;100278.16;5031111;28;20239;-56
2021/12/05 14:56:50;;;;;;;36.30;25.63;;;;;;;2.26;100.00;100278.34;5033793;28;20334;-57
2021/12/05 14:59:18;;;;;;;44.60;27.63;;;;;;;2.18;100.00;100280.75;5031207;28;20715;-56
2021/12/05 15:01:48;;;;;;;41.07;26.73;;;;;;;2.14;100.00;100289.25;5021855;28;20251;-57
2021/12/05 15:04:23;;;;;;;43.27;27.63;;;;;;;2.00;100.00;100290.59;5026239;28;20290;-55
2021/12/05 15:06:49;;;;;;;39.30;25.67;;;;;;;2.24;100.00;100299.00;5031215;28;20670;-58
2021/12/05 15:09:20;;;;;;;43.17;26.83;;;;;;;2.21;100.00;100301.56;5030338;28;20239;-60